Weather at Al Sahel Hospital Helipad

Public forecast

Using degrees Celsius for public forecast. Weather courtesy of forecast.io.

Closest aviation weather report (METAR) to Al Sahel Hospital Helipad

Closest report is Beirut Rafic Hariri International Airport, 2.4 nm (4.4 km) SSW.

2024/05/30 21:00 (retrieved 43 minutes ago)

OLBA 302100Z 16006KT 8000 SCT026 22/16 Q1016 NOSIG

Closest aviation forecast (TAF) to Al Sahel Hospital Helipad

Forecast is more than 6 hours old.

Closest forecast is Beirut Rafic Hariri International Airport, 2.4 nm (4.4 km) SSW.

2024/05/30 12:01 (retrieved 10 hours ago)

TAF OLBA 301000Z 3012/3118 26005KT 9999 FEW026 BECMG 3100/3103 19005KT TEMPO 3018/3106 5000 BR BECMG 3106/3109 26005KT 8000 BECMG 3115/3118 01005KT